Time;durP1;ratioP1;P1;durP2;ratioP2;P2;SDS_P1;SDS_P2;PMS_P1;PMS_P2;Temp;Humidity;BMP_temperature;BMP_pressure;BME280_temperature;BME280_humidity;BME280_pressure;Samples;Min_cycle;Max_cycle;Signal;HPM_P1;HPM_P2
2024/02/10 00:00:35;;;;;;;12.35;7.13;;;;;;;9.07;82.89;96026.84;4948361;28;104402;-67
2024/02/10 00:03:05;;;;;;;7.80;5.25;;;;;;;9.12;84.07;96026.97;4947973;28;103166;-67
2024/02/10 00:05:35;;;;;;;14.10;7.43;;;;;;;9.16;83.71;96035.22;4962406;28;102575;-67
2024/02/10 00:08:04;;;;;;;9.95;6.57;;;;;;;9.13;83.94;96037.31;4963136;28;103900;-66
2024/02/10 00:10:33;;;;;;;7.97;5.50;;;;;;;9.19;83.43;96034.81;4957599;28;103332;-66
2024/02/10 00:13:01;;;;;;;8.05;5.07;;;;;;;9.19;83.52;96025.03;4953866;28;103223;-66
2024/02/10 00:15:29;;;;;;;8.90;5.50;;;;;;;9.25;83.66;96033.91;4952379;28;102618;-66
2024/02/10 00:17:57;;;;;;;10.25;6.05;;;;;;;9.25;83.59;96028.63;4951467;28;102760;-65
2024/02/10 00:20:33;;;;;;;10.18;6.07;;;;;;;9.21;84.11;96030.91;4958468;28;104399;-66
2024/02/10 00:23:02;;;;;;;10.32;6.43;;;;;;;9.25;84.01;96034.69;4958528;28;103242;-66
2024/02/10 00:25:31;;;;;;;13.25;7.70;;;;;;;9.15;83.21;96023.06;4965156;28;102698;-65
2024/02/10 00:28:00;;;;;;;14.35;6.85;;;;;;;9.20;83.69;96028.50;4957437;28;104142;-66
2024/02/10 00:30:39;;;;;;;10.80;7.30;;;;;;;9.22;83.51;96029.06;4961850;28;103412;-66
2024/02/10 00:33:15;;;;;;;10.48;6.97;;;;;;;9.23;83.44;96031.47;4960575;28;103049;-65
2024/02/10 00:35:46;;;;;;;9.85;6.10;;;;;;;9.26;83.29;96035.50;4961774;28;103351;-65
2024/02/10 00:38:17;;;;;;;9.05;5.28;;;;;;;9.26;83.38;96030.22;4957508;28;102713;-66
2024/02/10 00:40:45;;;;;;;9.38;7.25;;;;;;;9.16;83.18;96030.78;4936951;28;104058;-66
2024/02/10 00:43:14;;;;;;;9.90;6.32;;;;;;;9.19;83.41;96029.53;4950902;28;103059;-66
2024/02/10 00:45:46;;;;;;;10.95;6.80;;;;;;;9.14;83.82;96022.25;4954177;28;102633;-66
2024/02/10 00:48:17;;;;;;;13.32;7.95;;;;;;;9.08;83.80;96023.97;4954723;28;103771;-66
2024/02/10 00:50:46;;;;;;;10.80;7.28;;;;;;;9.05;84.00;96023.59;4944635;28;104141;-66
2024/02/10 00:53:14;;;;;;;13.88;7.60;;;;;;;9.10;84.23;96037.75;4957918;28;102705;-66
2024/02/10 00:55:43;;;;;;;12.07;7.78;;;;;;;9.06;84.43;96033.16;4955229;28;102648;-66
2024/02/10 00:58:11;;;;;;;12.10;7.28;;;;;;;9.08;84.08;96029.25;4955658;28;102658;-66
2024/02/10 01:00:39;;;;;;;11.77;6.90;;;;;;;9.07;84.01;96026.84;4956214;28;103261;-66
2024/02/10 01:03:08;;;;;;;10.02;6.32;;;;;;;9.13;84.18;96024.09;4954214;28;103386;-66
2024/02/10 01:05:37;;;;;;;10.10;6.90;;;;;;;9.13;83.67;96026.75;4959444;28;102620;-66
2024/02/10 01:08:09;;;;;;;10.60;6.50;;;;;;;9.18;83.82;96027.91;4958720;28;103879;-66
2024/02/10 01:10:38;;;;;;;11.13;6.30;;;;;;;9.20;83.60;96010.81;4956716;28;104459;-66
2024/02/10 01:13:06;;;;;;;10.88;7.30;;;;;;;9.20;83.88;96010.00;4953600;28;104346;-66
2024/02/10 01:15:34;;;;;;;11.60;7.13;;;;;;;9.17;83.31;96007.81;4958122;28;102639;-65
2024/02/10 01:18:03;;;;;;;8.98;5.85;;;;;;;9.23;83.72;96009.53;4969419;28;102745;-66
2024/02/10 01:20:32;;;;;;;9.13;6.57;;;;;;;9.27;83.85;96003.59;4960573;28;103236;-66
2024/02/10 01:23:00;;;;;;;10.40;6.57;;;;;;;9.28;83.49;96001.75;4967688;28;103375;-67
2024/02/10 01:25:35;;;;;;;9.15;6.55;;;;;;;9.31;83.47;96000.50;4949652;28;102726;-67
2024/02/10 01:28:07;;;;;;;10.00;6.55;;;;;;;9.30;83.41;96004.97;4959409;28;103808;-66
2024/02/10 01:30:35;;;;;;;10.98;6.45;;;;;;;9.30;83.06;96007.59;4944925;28;104319;-65
2024/02/10 01:37:18;;;;;;;15.27;10.07;;;;;;;8.97;84.14;95995.69;4961645;28;102703;-65
2024/02/10 01:39:47;;;;;;;14.07;8.32;;;;;;;9.05;84.64;95986.63;4968516;28;102947;-65
2024/02/10 01:42:20;;;;;;;13.35;8.95;;;;;;;9.08;84.33;95989.66;4969024;28;104012;-66
2024/02/10 01:44:48;;;;;;;11.85;7.57;;;;;;;9.09;83.92;95983.34;4966437;28;103138;-66
2024/02/10 01:47:17;;;;;;;11.85;7.50;;;;;;;9.11;84.23;95981.25;4957640;28;102710;-66
2024/02/10 01:49:45;;;;;;;11.30;7.90;;;;;;;9.08;84.07;95979.09;4954618;28;102744;-66
2024/02/10 01:52:14;;;;;;;11.95;9.10;;;;;;;8.93;83.98;95968.13;4956571;28;103864;-65
2024/02/10 01:54:47;;;;;;;11.63;7.60;;;;;;;8.90;84.32;95964.09;4953821;28;103814;-66
2024/02/10 01:57:15;;;;;;;15.80;10.05;;;;;;;8.87;84.96;95958.47;4958141;28;102682;-66
2024/02/10 01:59:47;;;;;;;14.00;8.35;;;;;;;8.78;85.38;95961.41;4958429;28;103981;-67
2024/02/10 02:02:16;;;;;;;11.23;8.45;;;;;;;8.90;84.90;95956.19;4959988;28;104250;-67
2024/02/10 02:04:45;;;;;;;12.15;8.75;;;;;;;8.98;85.26;95955.06;4967368;28;103274;-67
2024/02/10 02:07:13;;;;;;;11.75;7.28;;;;;;;8.93;85.12;95954.94;4958237;28;102949;-66
2024/02/10 02:09:43;;;;;;;13.25;8.85;;;;;;;9.01;85.33;95949.31;4959662;28;104344;-67
2024/02/10 02:12:11;;;;;;;10.73;7.13;;;;;;;9.03;84.78;95949.13;4955186;28;103269;-67
2024/02/10 02:14:41;;;;;;;12.73;8.82;;;;;;;9.08;84.64;95949.25;4955119;28;103231;-66
2024/02/10 02:17:12;;;;;;;17.65;11.48;;;;;;;8.99;84.72;95937.38;4966539;28;102794;-67
2024/02/10 02:19:42;;;;;;;19.23;12.63;;;;;;;8.94;85.50;95927.50;4961269;28;103849;-67
2024/02/10 02:22:10;;;;;;;18.65;12.45;;;;;;;8.89;85.63;95935.28;4955372;28;103103;-66
2024/02/10 02:24:40;;;;;;;13.75;10.48;;;;;;;8.97;85.66;95934.97;4950748;28;103281;-66
2024/02/10 02:27:09;;;;;;;15.48;11.15;;;;;;;9.01;85.38;95938.75;4954869;28;102750;-67
2024/02/10 02:29:37;;;;;;;18.27;12.90;;;;;;;8.95;85.38;95929.13;4938833;28;102789;-66
2024/02/10 02:36:35;;;;;;;17.92;11.98;;;;;;;8.62;86.19;95919.84;4963395;28;102823;-67
2024/02/10 02:39:03;;;;;;;18.23;12.70;;;;;;;8.69;86.43;95915.28;4955178;28;102667;-67
2024/02/10 02:41:33;;;;;;;21.05;13.65;;;;;;;8.61;86.74;95912.94;4947161;28;103050;-67
2024/02/10 02:44:01;;;;;;;20.45;14.77;;;;;;;8.60;87.27;95901.56;4954599;28;105055;-67
2024/02/10 02:46:29;;;;;;;20.50;13.60;;;;;;;8.55;87.73;95909.34;4954017;28;103261;-67
2024/02/10 02:49:00;;;;;;;14.60;10.98;;;;;;;8.74;87.32;95898.78;4963632;28;102773;-67
2024/02/10 02:51:28;;;;;;;20.35;14.48;;;;;;;8.59;86.99;95894.72;4954167;28;102901;-67
2024/02/10 02:53:57;;;;;;;17.98;12.13;;;;;;;8.60;87.47;95901.56;4953972;28;103704;-67
2024/02/10 02:56:28;;;;;;;22.98;15.57;;;;;;;8.46;87.92;95898.34;4954654;28;103831;-67
2024/02/10 02:58:59;;;;;;;28.40;15.82;;;;;;;8.30;87.84;95897.09;4956679;28;102794;-67
2024/02/10 03:01:33;;;;;;;32.45;16.50;;;;;;;8.12;89.36;95886.53;4954466;28;104075;-67
2024/02/10 03:04:01;;;;;;;24.55;16.20;;;;;;;8.16;89.35;95884.28;4942695;28;104135;-67
2024/02/10 03:06:29;;;;;;;25.13;16.45;;;;;;;8.18;89.26;95882.25;4960674;28;103249;-67
2024/02/10 03:08:58;;;;;;;27.45;16.30;;;;;;;8.11;89.10;95883.13;4952502;28;102795;-67
2024/02/10 03:11:26;;;;;;;25.52;16.15;;;;;;;7.96;89.54;95874.78;4953131;28;103055;-67
2024/02/10 03:13:59;;;;;;;24.65;16.05;;;;;;;8.01;89.18;95869.66;4950178;28;104220;-67
2024/02/10 03:16:33;;;;;;;22.42;15.27;;;;;;;7.88;89.20;95877.72;4957087;28;104170;-67
2024/02/10 03:27:39;;;;;;;28.42;14.95;;;;;;;7.59;90.33;95869.53;4956899;28;103272;-67
2024/02/10 03:30:09;;;;;;;28.92;15.68;;;;;;;7.85;90.03;95863.16;4955638;28;104841;-67
2024/02/10 03:32:38;;;;;;;19.20;11.52;;;;;;;8.06;89.76;95859.25;4956375;28;102876;-67
2024/02/10 03:35:07;;;;;;;23.20;13.23;;;;;;;8.09;88.64;95853.53;4961058;28;106596;-68
2024/02/10 03:37:35;;;;;;;28.17;15.60;;;;;;;7.82;88.63;95857.50;4954584;28;104588;-67
2024/02/10 03:40:08;;;;;;;30.15;16.17;;;;;;;7.87;89.11;95855.03;4963622;28;103214;-67
2024/02/10 03:42:36;;;;;;;18.38;12.48;;;;;;;8.06;88.85;95843.44;4964070;28;102896;-68
2024/02/10 03:45:05;;;;;;;19.58;12.73;;;;;;;8.19;88.25;95847.75;4943999;28;102721;-68
2024/02/10 03:47:33;;;;;;;19.50;12.13;;;;;;;8.28;88.51;95842.97;4965582;28;103769;-68
2024/02/10 03:50:04;;;;;;;22.67;13.88;;;;;;;7.97;88.84;95842.13;4942931;28;103398;-68
2024/02/10 03:52:34;;;;;;;22.08;14.00;;;;;;;8.11;88.32;95843.56;4969149;28;102803;-68
2024/02/10 03:55:02;;;;;;;19.60;12.93;;;;;;;8.19;88.51;95846.91;4962064;28;102815;-68
2024/02/10 03:57:31;;;;;;;18.00;12.20;;;;;;;8.19;87.85;95846.91;4959515;28;103742;-67
2024/02/10 03:59:58;;;;;;;20.67;14.93;;;;;;;8.17;87.92;95835.81;4955394;28;103129;-68
2024/02/10 04:02:27;;;;;;;17.75;11.55;;;;;;;8.28;87.40;95845.59;4953836;28;104196;-67
2024/02/10 04:04:55;;;;;;;14.40;10.25;;;;;;;8.34;87.61;95843.91;4953377;28;104361;-67
2024/02/10 04:07:26;;;;;;;17.83;12.52;;;;;;;8.31;87.38;95847.78;4935617;28;103287;-66
2024/02/10 04:09:54;;;;;;;24.55;13.75;;;;;;;8.35;86.92;95851.56;4962440;28;103259;-67
2024/02/10 04:12:22;;;;;;;19.27;13.52;;;;;;;8.34;86.94;95841.25;4958818;28;102651;-66
2024/02/10 04:14:52;;;;;;;17.33;10.90;;;;;;;8.44;87.22;95847.59;4962928;28;103997;-67
2024/02/10 04:17:23;;;;;;;15.55;10.52;;;;;;;8.42;86.97;95841.75;4959368;28;103339;-66
2024/02/10 04:19:55;;;;;;;17.92;12.10;;;;;;;8.39;87.23;95847.47;4963214;28;102965;-67
2024/02/10 04:22:25;;;;;;;21.35;13.13;;;;;;;8.39;86.83;95857.22;4962617;28;103067;-66
2024/02/10 04:24:53;;;;;;;19.08;12.65;;;;;;;8.47;86.64;95856.91;4957050;28;104091;-67
2024/02/10 04:27:23;;;;;;;14.25;10.48;;;;;;;8.49;86.64;95868.06;4957762;28;103044;-66
2024/02/10 04:29:51;;;;;;;18.13;12.30;;;;;;;8.48;86.06;95855.09;4961685;28;103236;-64
2024/02/10 04:32:19;;;;;;;23.33;15.88;;;;;;;8.40;86.35;95854.34;4951791;28;103175;-65
2024/02/10 04:34:47;;;;;;;19.58;13.07;;;;;;;8.41;85.97;95861.25;4960294;28;102724;-67
2024/02/10 04:37:19;;;;;;;16.77;10.98;;;;;;;8.38;86.41;95860.88;4957816;28;104040;-67
2024/02/10 04:39:51;;;;;;;16.00;11.13;;;;;;;8.42;85.71;95862.84;4961508;28;104570;-65
2024/02/10 04:42:19;;;;;;;15.65;11.55;;;;;;;8.41;85.95;95858.59;4963954;28;102692;-66
2024/02/10 04:44:52;;;;;;;19.90;12.70;;;;;;;8.32;85.51;95851.22;4962894;28;104318;-66
2024/02/10 04:47:20;;;;;;;18.50;11.85;;;;;;;8.40;85.76;95859.63;4961637;28;103420;-66
2024/02/10 04:49:48;;;;;;;20.23;14.25;;;;;;;7.97;85.04;95857.94;4957406;28;103228;-66
2024/02/10 04:52:18;;;;;;;21.13;14.57;;;;;;;7.75;86.30;95863.66;4956966;28;102705;-65
2024/02/10 04:54:53;;;;;;;15.43;11.38;;;;;;;7.92;85.79;95860.44;4957736;28;104044;-66
2024/02/10 04:57:28;;;;;;;24.45;14.52;;;;;;;7.92;86.04;95863.06;4958895;28;104397;-66
2024/02/10 04:59:58;;;;;;;29.60;13.50;;;;;;;7.89;85.82;95866.16;4957201;28;104066;-66
2024/02/10 05:02:26;;;;;;;16.63;12.88;;;;;;;7.77;86.01;95861.63;4960586;28;103176;-66
2024/02/10 05:04:54;;;;;;;18.45;12.90;;;;;;;7.85;85.98;95868.44;4963143;28;102838;-66
2024/02/10 05:07:22;;;;;;;26.00;14.18;;;;;;;7.67;86.04;95865.78;4959205;28;103987;-66
2024/02/10 05:09:50;;;;;;;26.30;15.02;;;;;;;7.52;86.50;95860.88;4958641;28;103792;-66
2024/02/10 05:12:18;;;;;;;21.48;15.00;;;;;;;7.22;86.73;95869.44;4965402;28;103672;-66
2024/02/10 05:14:51;;;;;;;25.73;15.85;;;;;;;7.10;88.19;95871.97;4955696;28;104218;-66
2024/02/10 05:17:20;;;;;;;25.73;15.93;;;;;;;7.16;88.38;95862.44;4963588;28;103367;-65
2024/02/10 05:19:48;;;;;;;32.05;16.48;;;;;;;7.12;88.69;95865.47;4959616;28;103309;-66
2024/02/10 05:22:21;;;;;;;31.25;17.23;;;;;;;7.16;88.28;95865.06;4960080;28;102638;-70
2024/02/10 05:24:51;;;;;;;25.30;16.20;;;;;;;7.20;88.78;95860.97;4961262;28;103136;-70
2024/02/10 05:27:19;;;;;;;26.45;17.15;;;;;;;7.20;88.90;95861.78;4958958;28;103304;-70
2024/02/10 05:29:48;;;;;;;25.67;15.65;;;;;;;7.31;88.92;95852.38;4961108;28;103287;-70
2024/02/10 05:57:33;;;;;;;24.58;14.25;;;;;;;6.91;88.09;95844.81;4947761;28;104178;-67
2024/02/10 06:00:02;;;;;;;22.00;13.63;;;;;;;7.04;89.08;95849.97;4946263;28;104312;-69
2024/02/10 06:02:31;;;;;;;23.00;15.13;;;;;;;6.98;88.61;95853.47;4953624;28;102757;-70
2024/02/10 06:04:59;;;;;;;28.77;15.60;;;;;;;7.00;88.53;95856.69;4951573;28;103304;-69
2024/02/10 06:07:35;;;;;;;24.23;15.77;;;;;;;6.80;88.53;95847.13;4953702;28;104150;-69
2024/02/10 06:10:07;;;;;;;25.90;15.63;;;;;;;6.95;88.71;95848.63;4945690;28;103242;-69
2024/02/10 06:12:40;;;;;;;;;;;;;;;7.07;88.59;95846.91;4936762;28;102705;-69
2024/02/10 06:15:10;;;;;;;16.55;10.23;;;;;;;7.20;88.41;95850.44;4961076;28;104031;-69
2024/02/10 06:17:39;;;;;;;17.63;11.65;;;;;;;7.40;88.14;95858.97;4952244;28;103259;-69
2024/02/10 06:20:12;;;;;;;20.88;13.23;;;;;;;7.37;87.43;95851.50;4954603;28;103325;-69
2024/02/10 06:22:41;;;;;;;18.85;11.95;;;;;;;7.47;87.60;95851.78;4962703;28;102748;-69
2024/02/10 06:25:12;;;;;;;16.52;10.73;;;;;;;7.52;87.71;95858.22;4959524;28;104050;-69
2024/02/10 06:27:42;;;;;;;19.45;13.23;;;;;;;7.51;87.50;95857.44;4936969;28;104248;-69
2024/02/10 06:30:13;;;;;;;22.00;14.05;;;;;;;7.41;87.19;95852.66;4959295;28;103063;-69
2024/02/10 06:32:43;;;;;;;25.30;14.75;;;;;;;7.16;87.19;95857.16;4930373;28;102824;-68
2024/02/10 06:35:12;;;;;;;20.27;13.57;;;;;;;7.07;88.17;95860.06;4915246;28;103693;-69
2024/02/10 06:37:42;;;;;;;25.92;15.95;;;;;;;7.12;88.13;95856.78;4938161;28;103260;-67
2024/02/10 06:40:14;;;;;;;25.83;16.60;;;;;;;7.14;88.31;95860.81;4934828;28;103365;-67
2024/02/10 06:42:48;;;;;;;25.23;16.02;;;;;;;7.16;88.48;95857.16;4935115;28;104044;-68
2024/02/10 06:45:21;;;;;;;25.05;17.02;;;;;;;7.25;88.14;95859.31;4933175;28;104153;-68
2024/02/10 06:47:50;;;;;;;23.10;13.43;;;;;;;7.40;87.61;95856.34;4933412;28;103250;-68
2024/02/10 06:50:23;;;;;;;22.13;13.27;;;;;;;7.42;87.28;95859.53;4934231;28;103273;-68
2024/02/10 06:52:52;;;;;;;20.08;13.30;;;;;;;7.34;87.66;95861.69;4916144;28;102645;-68
2024/02/10 06:55:23;;;;;;;16.83;10.88;;;;;;;7.55;87.32;95857.81;4937808;28;104122;-67
2024/02/10 07:02:14;;;;;;;14.68;9.20;;;;;;;7.65;86.79;95866.03;4952932;28;103174;-68
2024/02/10 07:04:42;;;;;;;14.95;9.93;;;;;;;7.72;86.31;95864.09;4955127;28;102653;-69
2024/02/10 07:07:10;;;;;;;13.73;10.00;;;;;;;7.75;85.67;95866.28;4953040;28;102746;-69
2024/02/10 07:09:42;;;;;;;17.67;12.40;;;;;;;7.59;85.31;95874.78;4935960;28;104461;-69
2024/02/10 07:12:14;;;;;;;21.00;12.98;;;;;;;7.18;86.41;95873.53;4932337;28;103389;-69
2024/02/10 07:14:45;;;;;;;19.00;14.48;;;;;;;7.15;86.75;95869.50;4940000;28;102817;-70
2024/02/10 07:17:17;;;;;;;21.55;13.93;;;;;;;7.04;87.20;95873.66;4928254;28;104120;-69
2024/02/10 07:19:51;;;;;;;26.98;17.10;;;;;;;7.11;87.55;95869.16;4932140;28;103798;-69
2024/02/10 07:22:19;;;;;;;37.17;19.35;;;;;;;7.05;88.56;95864.75;4936113;28;103216;-69
2024/02/10 07:24:47;;;;;;;59.10;21.27;;;;;;;7.05;89.81;95848.97;4936338;28;102631;-69
2024/02/10 07:40:12;;;;;;;158.50;23.88;;;;;;;7.30;89.22;95862.09;4926058;28;104089;-71
2024/02/10 07:42:43;;;;;;;373.80;29.20;;;;;;;7.18;89.52;95855.13;4951984;28;102759;-70
2024/02/10 07:45:11;;;;;;;426.95;29.73;;;;;;;7.19;90.15;95862.00;4958857;28;103114;-70
2024/02/10 07:47:39;;;;;;;367.45;28.92;;;;;;;7.13;90.14;95861.84;4955732;28;103327;-70
2024/02/10 07:50:13;;;;;;;313.02;27.48;;;;;;;7.16;90.29;95859.81;4953153;28;102706;-68
2024/02/10 07:52:45;;;;;;;151.60;26.42;;;;;;;7.31;89.86;95868.19;4959676;28;103215;-70
2024/02/10 08:24:47;;;;;;;65.93;23.70;;;;;;;8.04;87.47;95836.78;4942232;28;103998;-69
2024/02/10 08:31:30;;;;;;;42.60;18.83;;;;;;;8.22;87.67;95841.22;4938688;22;103754;-69
2024/02/10 08:34:02;;;;;;;34.03;16.85;;;;;;;8.41;87.11;95841.97;4882107;28;103009;-69
2024/02/10 08:36:31;;;;;;;48.15;20.27;;;;;;;8.22;87.39;95830.66;4891531;28;103970;-69
2024/02/10 08:39:03;;;;;;;58.00;23.88;;;;;;;8.00;87.88;95836.41;4913082;28;103800;-69
2024/02/10 08:41:35;;;;;;;31.77;17.85;;;;;;;8.20;87.64;95816.91;4920791;28;104523;-68
2024/02/10 08:44:09;;;;;;;80.75;24.05;;;;;;;7.82;87.65;95810.91;4900248;28;103274;-69
2024/02/10 08:46:50;;;;;;;64.50;25.65;;;;;;;7.73;88.61;95802.50;4905462;28;104566;-69
2024/02/10 08:49:53;;;;;;;82.75;25.02;;;;;;;7.70;88.47;95808.19;4909161;28;104340;-69
2024/02/10 08:52:48;;;;;;;61.47;23.65;;;;;;;7.84;89.34;95810.69;4895521;28;103097;-70
2024/02/10 08:55:19;;;;;;;64.60;24.45;;;;;;;7.89;88.26;95819.53;4911283;28;102815;-69
2024/02/10 08:57:50;;;;;;;48.75;24.63;;;;;;;7.82;88.41;95813.53;4914625;28;102759;-69
2024/02/10 09:00:25;;;;;;;43.80;22.35;;;;;;;8.06;88.44;95817.06;4910495;28;104223;-68
2024/02/10 09:11:45;;;;;;;26.10;15.57;;;;;;;8.57;87.92;95816.81;4902822;28;102881;-68
2024/02/10 09:14:14;;;;;;;26.10;14.88;;;;;;;8.75;87.11;95816.75;4899283;28;103216;-68
2024/02/10 09:16:45;;;;;;;29.05;16.75;;;;;;;8.70;86.89;95816.63;4908706;28;104270;-68
2024/02/10 09:19:13;;;;;;;26.17;16.17;;;;;;;8.83;86.85;95822.69;4912825;28;103116;-70
2024/02/10 09:21:43;;;;;;;26.83;15.85;;;;;;;8.95;86.41;95824.31;4896251;28;104252;-69
2024/02/10 09:24:13;;;;;;;29.15;15.60;;;;;;;9.04;85.75;95827.44;4912221;28;103914;-69
2024/02/10 09:26:42;;;;;;;24.23;15.73;;;;;;;9.06;85.43;95830.63;4905009;28;104228;-68
2024/02/10 09:29:10;;;;;;;30.20;16.40;;;;;;;9.12;84.95;95829.72;4908781;28;103047;-70
2024/02/10 09:31:44;;;;;;;28.92;18.38;;;;;;;9.06;84.90;95835.13;4896127;28;102787;-69
2024/02/10 10:05:07;;;;;;;31.02;17.73;;;;;;;9.04;84.21;95838.00;4852972;28;103159;-68
2024/02/10 10:07:35;;;;;;;25.85;16.20;;;;;;;9.08;83.72;95839.16;4881113;28;104227;-68
2024/02/10 11:02:22;;;;;;;35.67;21.38;;;;;;;8.23;86.82;95753.19;4894963;28;103048;-70
2024/02/10 11:05:10;;;;;;;33.28;20.08;;;;;;;8.55;87.38;95745.81;4897393;28;102756;-68
2024/02/10 11:07:49;;;;;;;37.83;22.85;;;;;;;8.48;86.91;95742.47;4898119;28;103793;-69
2024/02/10 11:10:35;;;;;;;39.95;21.85;;;;;;;8.48;87.39;95733.78;4915289;28;104106;-68
2024/02/10 11:13:05;;;;;;;37.85;23.15;;;;;;;8.48;86.79;95723.22;4903388;28;102816;-69
2024/02/10 11:15:37;;;;;;;43.15;24.45;;;;;;;8.15;87.78;95722.69;4912530;28;102639;-67
2024/02/10 11:18:15;;;;;;;42.83;24.85;;;;;;;8.30;88.15;95706.41;4905131;28;104186;-68
2024/02/10 11:20:48;;;;;;;40.80;22.15;;;;;;;8.19;87.64;95701.91;4881440;28;103244;-67
2024/02/10 11:23:19;;;;;;;43.03;22.67;;;;;;;8.27;88.04;95691.06;4880072;28;103478;-68
2024/02/10 11:25:53;;;;;;;37.92;22.50;;;;;;;8.57;87.74;95679.66;4902206;28;103160;-67
2024/02/10 11:28:22;;;;;;;45.65;24.55;;;;;;;8.37;87.15;95674.66;4896608;28;104242;-68
2024/02/10 11:30:51;;;;;;;35.30;20.38;;;;;;;8.28;86.68;95679.50;4895141;28;103199;-68
2024/02/10 11:33:24;;;;;;;35.05;21.88;;;;;;;8.37;87.32;95670.22;4892178;28;103412;-67
2024/02/10 11:36:10;;;;;;;34.47;20.92;;;;;;;8.20;87.96;95659.53;4924812;28;102979;-67
2024/02/10 11:38:40;;;;;;;36.10;19.05;;;;;;;8.22;87.66;95656.66;4923136;28;104080;-68
2024/02/10 11:41:10;;;;;;;32.92;18.00;;;;;;;8.56;87.92;95659.56;4936000;28;103759;-68
2024/02/10 11:43:38;;;;;;;27.83;16.05;;;;;;;8.85;87.15;95671.00;4933016;28;103257;-68
2024/02/10 11:46:08;;;;;;;29.27;18.38;;;;;;;9.08;86.82;95664.91;4961807;28;102743;-69
2024/02/10 11:48:40;;;;;;;27.30;16.48;;;;;;;9.34;85.84;95662.78;4956744;28;102781;-69
2024/02/10 11:51:08;;;;;;;26.27;15.98;;;;;;;9.48;84.85;95667.78;4959397;28;103303;-69
2024/02/10 11:53:44;;;;;;;22.35;14.20;;;;;;;9.56;84.39;95667.38;4960876;28;103275;-69
2024/02/10 11:56:13;;;;;;;22.85;14.95;;;;;;;9.64;83.97;95656.44;4939102;28;102971;-68
2024/02/10 11:58:45;;;;;;;24.55;13.82;;;;;;;9.74;82.96;95656.63;4947193;28;102832;-68
2024/02/10 12:01:13;;;;;;;19.83;13.05;;;;;;;9.85;82.58;95662.09;4949620;28;104302;-68
2024/02/10 12:03:44;;;;;;;17.70;11.52;;;;;;;9.98;82.05;95655.69;4962600;28;103248;-68
2024/02/10 12:06:13;;;;;;;20.55;13.57;;;;;;;10.16;82.11;95646.75;4960741;28;103307;-68
2024/02/10 12:08:42;;;;;;;17.88;11.80;;;;;;;10.22;81.34;95645.78;4961542;28;104274;-68
2024/02/10 12:11:11;;;;;;;19.73;13.45;;;;;;;10.19;81.13;95639.13;4960921;28;103432;-68
2024/02/10 12:13:39;;;;;;;19.35;13.55;;;;;;;10.11;80.25;95632.41;4942668;28;104177;-68
2024/02/10 12:16:10;;;;;;;17.52;11.43;;;;;;;10.11;81.42;95635.03;4965170;28;102644;-68
2024/02/10 12:18:38;;;;;;;17.45;12.10;;;;;;;10.21;81.24;95636.25;4958417;28;104001;-68
2024/02/10 12:21:11;;;;;;;21.95;14.35;;;;;;;10.21;80.74;95634.38;4969562;28;103322;-69
2024/02/10 12:23:41;;;;;;;17.10;11.80;;;;;;;10.26;80.64;95638.97;4969851;28;103219;-68
2024/02/10 12:26:10;;;;;;;18.23;12.77;;;;;;;10.29;80.37;95638.47;4966858;28;102696;-69
2024/02/10 12:28:40;;;;;;;17.67;12.27;;;;;;;10.25;80.30;95645.28;4970390;28;102718;-68
2024/02/10 12:31:08;;;;;;;23.67;14.80;;;;;;;10.18;79.60;95649.94;4946508;28;104026;-68
2024/02/10 12:33:36;;;;;;;18.15;12.13;;;;;;;10.17;80.08;95651.00;4940642;28;102904;-68
2024/02/10 12:36:06;;;;;;;15.80;11.52;;;;;;;10.13;80.41;95653.31;4946435;28;102735;-69
2024/02/10 12:38:36;;;;;;;17.85;11.88;;;;;;;10.28;80.44;95650.09;4928162;28;103017;-69
2024/02/10 12:41:04;;;;;;;22.83;13.73;;;;;;;10.11;79.51;95645.63;4948423;28;103437;-69
2024/02/10 12:43:33;;;;;;;19.15;13.85;;;;;;;9.95;79.29;95643.75;4955840;28;103691;-69
2024/02/10 12:46:03;;;;;;;21.10;13.75;;;;;;;9.85;80.04;95635.66;4965903;28;102687;-69
2024/02/10 12:48:31;;;;;;;18.63;13.02;;;;;;;9.68;81.58;95628.50;4960924;28;102841;-69
2024/02/10 12:50:59;;;;;;;17.00;12.20;;;;;;;9.75;82.01;95634.44;4963166;28;103313;-68
2024/02/10 12:53:28;;;;;;;20.38;13.95;;;;;;;9.60;81.77;95634.16;4948327;28;104368;-68
2024/02/10 12:55:58;;;;;;;19.50;13.20;;;;;;;9.75;82.03;95639.72;4080482;28;10000409;-68
2024/02/10 12:58:27;;;;;;;17.90;12.68;;;;;;;9.89;81.00;95637.59;4932758;28;103198;-67
2024/02/10 13:00:56;;;;;;;22.77;12.90;;;;;;;9.71;80.51;95635.97;4947490;28;102807;-68
2024/02/10 13:03:24;;;;;;;17.63;12.25;;;;;;;9.81;81.07;95632.69;4935226;28;102819;-68
2024/02/10 13:06:00;;;;;;;20.75;12.63;;;;;;;9.86;80.57;95621.41;4932904;28;104209;-67
2024/02/10 13:08:28;;;;;;;15.65;11.38;;;;;;;9.55;81.51;95610.28;3187187;28;10000907;-68
2024/02/10 13:10:56;;;;;;;17.08;11.57;;;;;;;9.16;82.98;95608.28;4926913;28;104287;-69
2024/02/10 13:13:25;;;;;;;18.70;12.60;;;;;;;9.33;82.50;95603.06;4914378;28;102751;-69
2024/02/10 13:15:54;;;;;;;17.35;12.52;;;;;;;9.54;82.25;95606.84;4912776;28;105255;-70
2024/02/10 13:18:24;;;;;;;20.85;13.02;;;;;;;9.62;81.91;95603.81;4913945;28;103897;-66
2024/02/10 13:21:00;;;;;;;20.17;13.27;;;;;;;9.68;81.04;95596.00;4905774;28;103911;-66
2024/02/10 13:24:53;;;;;;;13.13;9.48;;;;;;;9.96;81.45;95584.56;5028297;27;102840;-67
2024/02/10 13:27:21;;;;;;;19.40;11.93;;;;;;;10.00;81.52;95585.69;4978346;27;102729;-67
2024/02/10 13:29:50;;;;;;;15.83;10.10;;;;;;;10.11;81.80;95587.44;4087814;28;10000774;-67
2024/02/10 13:32:23;;;;;;;13.07;8.93;;;;;;;10.36;80.50;95577.50;4957040;28;104130;-69
2024/02/10 13:34:55;;;;;;;17.25;9.95;;;;;;;10.70;79.49;95567.66;4956909;28;104705;-67
2024/02/10 14:00:28;;;;;;;;;;;;;;;10.33;79.22;95531.13;4965357;22;104862;-69
2024/02/10 14:03:00;;;;;;;20.83;9.52;;;;;;;10.38;79.14;95531.22;4938621;28;102860;-70
2024/02/10 14:08:48;;;;;;;16.92;10.70;;;;;;;10.37;79.15;95516.41;4057989;28;10000476;-70
2024/02/10 14:11:32;;;;;;;14.98;9.05;;;;;;;10.64;79.19;95520.97;4925897;28;103213;-70
2024/02/10 14:22:31;;;;;;;16.23;9.18;;;;;;;10.33;79.79;95512.63;4955300;28;111489;-70
2024/02/10 14:25:08;;;;;;;16.35;8.20;;;;;;;10.26;78.65;95515.44;4941265;28;103258;-69
2024/02/10 14:27:42;;;;;;;14.25;8.75;;;;;;;10.47;79.35;95507.00;4961186;28;102842;-72
2024/02/10 14:30:15;;;;;;;14.13;8.85;;;;;;;10.54;79.03;95521.63;4940522;28;102666;-72
2024/02/10 14:32:51;;;;;;;14.38;9.25;;;;;;;10.19;79.18;95517.47;4947611;28;103265;-70
2024/02/10 14:35:34;;;;;;;14.57;10.20;;;;;;;10.40;79.11;95515.94;4953190;28;104543;-71
2024/02/10 14:38:23;;;;;;;17.38;10.30;;;;;;;10.32;79.71;95510.22;4928059;28;102822;-71
2024/02/10 14:40:53;;;;;;;13.45;8.93;;;;;;;10.51;79.78;95506.25;4946731;28;104371;-71
2024/02/10 14:43:23;;;;;;;21.20;9.63;;;;;;;10.27;79.57;95503.00;4931764;28;104201;-71
2024/02/10 14:45:51;;;;;;;15.02;10.23;;;;;;;10.32;79.94;95507.56;4943774;28;103443;-71
2024/02/10 14:48:22;;;;;;;16.85;9.65;;;;;;;10.26;80.16;95506.72;4940446;28;103172;-71
2024/02/10 14:50:56;;;;;;;18.65;10.32;;;;;;;10.23;80.17;95504.53;4943590;28;102816;-70
2024/02/10 14:53:31;;;;;;;15.32;9.48;;;;;;;10.19;80.24;95500.78;4946862;28;103342;-71
2024/02/10 14:56:00;;;;;;;14.45;9.25;;;;;;;10.27;79.92;95500.34;4911814;23;105830;-71
2024/02/10 14:58:29;;;;;;;15.60;9.82;;;;;;;10.17;79.88;95494.97;4927728;28;102666;-71
2024/02/10 15:00:58;;;;;;;15.90;8.95;;;;;;;10.29;80.09;95487.69;4928633;28;103955;-71
2024/02/10 15:03:32;;;;;;;16.25;9.95;;;;;;;10.04;80.12;95486.31;4935005;28;103402;-70
2024/02/10 15:06:02;;;;;;;18.08;9.38;;;;;;;10.04;80.81;95485.53;4926819;28;103180;-71
2024/02/10 15:08:33;;;;;;;17.90;9.52;;;;;;;10.01;80.96;95484.16;4945808;28;102903;-70
2024/02/10 15:11:01;;;;;;;17.42;10.73;;;;;;;9.89;81.28;95478.16;4937106;28;102731;-70
2024/02/10 15:13:30;;;;;;;16.35;10.02;;;;;;;10.02;81.52;95477.84;4924168;28;105188;-70
2024/02/10 15:15:58;;;;;;;14.05;8.48;;;;;;;10.24;80.96;95485.00;4915043;28;103339;-70